Time;durP1;ratioP1;P1;durP2;ratioP2;P2;SDS_P1;SDS_P2;PMS_P1;PMS_P2;Temp;Humidity;BMP_temperature;BMP_pressure;BME280_temperature;BME280_humidity;BME280_pressure;Samples;Min_cycle;Max_cycle;Signal;HPM_P1;HPM_P2
2021/06/12 00:00:39;;;;;;;8.10;7.30;;;18.40;96.70;;;;;;4937271;29;20048;-84
2021/06/12 00:03:05;;;;;;;7.40;6.70;;;18.40;96.60;;;;;;4936338;29;20511;-82
2021/06/12 00:05:32;;;;;;;7.95;6.93;;;18.40;96.70;;;;;;4936913;29;20086;-81
2021/06/12 00:07:57;;;;;;;8.10;7.30;;;18.40;96.80;;;;;;4938204;29;20102;-81
2021/06/12 00:10:32;;;;;;;9.20;7.28;;;18.40;96.90;;;;;;4937039;29;20106;-81
2021/06/12 00:12:58;;;;;;;8.70;7.85;;;18.40;96.90;;;;;;4937077;29;20123;-86
2021/06/12 00:15:24;;;;;;;9.07;7.57;;;18.30;96.90;;;;;;4937595;29;20063;-86
2021/06/12 00:17:50;;;;;;;9.15;7.78;;;18.20;97.00;;;;;;4917938;29;20095;-83
2021/06/12 00:20:28;;;;;;;10.68;8.52;;;18.10;97.10;;;;;;4918557;29;20020;-86
2021/06/12 00:22:54;;;;;;;8.88;8.07;;;18.10;97.20;;;;;;4918114;29;20484;-78
2021/06/12 00:25:24;;;;;;;10.38;9.20;;;18.00;97.30;;;;;;4917262;29;20036;-84
2021/06/12 00:27:49;;;;;;;10.38;9.00;;;18.00;97.50;;;;;;4917898;29;20028;-82
2021/06/12 00:30:16;;;;;;;10.57;9.48;;;17.90;97.50;;;;;;4918203;29;20075;-89
2021/06/12 00:32:42;;;;;;;10.20;8.30;;;17.90;97.70;;;;;;4901686;29;20028;-83
2021/06/12 00:35:11;;;;;;;9.68;8.50;;;17.80;97.80;;;;;;4901992;29;20123;-81
2021/06/12 00:37:38;;;;;;;11.88;8.55;;;17.80;97.80;;;;;;4918137;29;20037;-86
2021/06/12 00:40:07;;;;;;;11.30;10.10;;;17.70;97.90;;;;;;4916933;29;20494;-86
2021/06/12 00:42:34;;;;;;;9.00;8.20;;;17.70;98.00;;;;;;4917449;29;20520;-83
2021/06/12 00:45:00;;;;;;;9.30;7.38;;;17.70;98.10;;;;;;4916391;29;20080;-83
2021/06/12 00:47:25;;;;;;;9.95;8.52;;;17.60;98.10;;;;;;4917128;29;20058;-79
2021/06/12 00:49:51;;;;;;;9.82;8.75;;;17.60;98.30;;;;;;4918517;29;20080;-84
2021/06/12 00:52:16;;;;;;;10.32;9.07;;;17.50;98.40;;;;;;4916878;29;20024;-79
2021/06/12 00:54:42;;;;;;;11.73;8.90;;;17.50;98.50;;;;;;4916808;29;20060;-81
2021/06/12 00:57:08;;;;;;;8.95;8.02;;;17.50;98.50;;;;;;4916887;29;20036;-80
2021/06/12 00:59:34;;;;;;;11.48;9.15;;;17.50;98.60;;;;;;4916462;29;20385;-82
2021/06/12 01:02:00;;;;;;;12.50;9.32;;;17.40;98.60;;;;;;4917039;29;20028;-80
2021/06/12 01:04:26;;;;;;;9.80;8.50;;;17.40;98.70;;;;;;4916334;29;20071;-83
2021/06/12 01:06:52;;;;;;;10.60;9.02;;;17.40;98.70;;;;;;4916149;29;20020;-83
2021/06/12 01:09:22;;;;;;;11.00;9.38;;;17.40;98.80;;;;;;4917142;29;20024;-81
2021/06/12 01:12:03;;;;;;;11.65;9.30;;;17.40;98.80;;;;;;4917963;29;20031;-80
2021/06/12 01:14:31;;;;;;;10.07;9.07;;;17.40;98.90;;;;;;4917444;29;20043;-81
2021/06/12 01:17:01;;;;;;;11.38;9.68;;;17.30;98.90;;;;;;4928864;29;20059;-85
2021/06/12 01:19:52;;;;;;;10.98;9.40;;;17.30;98.90;;;;;;4936730;29;20067;-81
2021/06/12 01:22:24;;;;;;;13.70;10.02;;;17.30;98.90;;;;;;4935207;29;20499;-80
2021/06/12 01:25:03;;;;;;;11.23;9.48;;;17.30;99.00;;;;;;4935485;29;20036;-79
2021/06/12 01:27:49;;;;;;;10.38;9.35;;;17.20;99.00;;;;;;4935310;29;20381;-79
2021/06/12 01:30:24;;;;;;;11.90;9.13;;;17.20;99.10;;;;;;4935536;29;20472;-82
2021/06/12 01:33:00;;;;;;;10.98;9.30;;;17.20;99.10;;;;;;4935390;29;20507;-83
2021/06/12 01:35:34;;;;;;;11.13;9.43;;;17.30;99.10;;;;;;4934697;29;20020;-81
2021/06/12 01:38:00;;;;;;;13.95;10.38;;;17.30;99.20;;;;;;4935014;29;20492;-81
2021/06/12 01:40:31;;;;;;;11.10;8.98;;;17.40;99.10;;;;;;4935705;29;20127;-80
2021/06/12 01:42:57;;;;;;;10.25;8.88;;;17.40;99.10;;;;;;4918776;29;20456;-80
2021/06/12 01:45:24;;;;;;;11.57;8.07;;;17.60;98.90;;;;;;4935358;29;20031;-80
2021/06/12 01:47:52;;;;;;;9.55;8.35;;;17.60;98.70;;;;;;4935101;29;20118;-79
2021/06/12 01:50:19;;;;;;;10.10;8.88;;;17.70;98.60;;;;;;4934449;29;20024;-80
2021/06/12 01:52:46;;;;;;;9.80;8.80;;;17.80;98.60;;;;;;4934923;29;20401;-78
2021/06/12 01:55:14;;;;;;;12.35;8.98;;;17.80;98.50;;;;;;4935269;29;20031;-83
2021/06/12 01:57:42;;;;;;;10.85;9.02;;;17.90;98.40;;;;;;4935072;29;20555;-82
2021/06/12 02:00:09;;;;;;;11.77;9.75;;;17.90;98.30;;;;;;4934495;29;20028;-82
2021/06/12 02:02:36;;;;;;;9.48;8.48;;;17.90;98.20;;;;;;4934164;29;20426;-80
2021/06/12 02:05:03;;;;;;;10.80;9.13;;;18.00;98.10;;;;;;4934420;29;20114;-81
2021/06/12 02:07:30;;;;;;;12.10;8.70;;;18.00;98.10;;;;;;4935196;29;20035;-80
2021/06/12 02:09:55;;;;;;;10.07;8.88;;;18.00;98.10;;;;;;4933985;29;20062;-80
2021/06/12 02:12:23;;;;;;;11.73;9.75;;;18.00;98.00;;;;;;4935051;29;20059;-82
2021/06/12 02:14:50;;;;;;;10.77;8.48;;;18.00;98.00;;;;;;4934680;29;20024;-79
2021/06/12 02:17:16;;;;;;;9.55;8.55;;;18.00;97.90;;;;;;4933503;29;20039;-85
2021/06/12 02:19:42;;;;;;;11.65;9.70;;;18.00;97.90;;;;;;4934470;29;20039;-78
2021/06/12 02:22:09;;;;;;;14.68;10.10;;;18.00;97.80;;;;;;4935653;29;20023;-77
2021/06/12 02:24:35;;;;;;;11.00;9.45;;;18.00;97.80;;;;;;4933848;29;20074;-80
2021/06/12 02:27:02;;;;;;;12.88;8.75;;;18.00;97.70;;;;;;4935599;29;20028;-79
2021/06/12 02:29:28;;;;;;;12.98;9.45;;;18.00;97.70;;;;;;4934396;29;20024;-78
2021/06/12 02:32:02;;;;;;;12.13;9.25;;;18.00;97.70;;;;;;4933553;29;20028;-78
2021/06/12 02:34:30;;;;;;;13.75;9.38;;;18.00;97.70;;;;;;4934303;29;20034;-84
2021/06/12 02:36:56;;;;;;;18.95;9.63;;;17.90;97.60;;;;;;4934016;29;20053;-84
2021/06/12 02:39:22;;;;;;;15.00;8.82;;;17.90;97.60;;;;;;4934076;29;20031;-86
2021/06/12 02:41:47;;;;;;;16.95;10.82;;;17.90;97.60;;;;;;4934214;29;20179;-84
2021/06/12 02:44:13;;;;;;;12.65;9.05;;;17.90;97.70;;;;;;4935632;29;20042;-85
2021/06/12 02:46:41;;;;;;;11.20;8.10;;;17.90;97.60;;;;;;4933632;29;20020;-82
2021/06/12 02:49:09;;;;;;;10.50;8.25;;;17.90;97.50;;;;;;4933804;29;20020;-80
2021/06/12 02:51:40;;;;;;;14.73;9.02;;;17.90;97.50;;;;;;4934790;29;20421;-79
2021/06/12 02:54:06;;;;;;;17.83;8.90;;;18.00;97.50;;;;;;4934020;29;20020;-85
2021/06/12 02:56:32;;;;;;;13.93;8.50;;;17.90;97.50;;;;;;4933930;29;20472;-82
2021/06/12 02:59:03;;;;;;;11.77;8.20;;;17.90;97.50;;;;;;4934526;29;20110;-79
2021/06/12 03:01:31;;;;;;;14.57;9.65;;;17.90;97.40;;;;;;4934139;29;20437;-80
2021/06/12 03:03:58;;;;;;;12.43;8.57;;;18.00;97.40;;;;;;4933580;29;20028;-84
2021/06/12 03:06:26;;;;;;;19.10;9.15;;;18.00;97.50;;;;;;4933575;29;20055;-84
2021/06/12 03:08:52;;;;;;;12.23;8.98;;;18.00;97.40;;;;;;4934103;29;20050;-81
2021/06/12 03:11:20;;;;;;;13.82;9.07;;;18.00;97.40;;;;;;4934184;29;20477;-82
2021/06/12 03:13:47;;;;;;;12.55;8.10;;;18.00;97.40;;;;;;4933060;29;20031;-82
2021/06/12 03:16:14;;;;;;;12.52;8.05;;;18.00;97.40;;;;;;4933642;29;20051;-81
2021/06/12 03:18:46;;;;;;;11.50;8.82;;;18.00;97.40;;;;;;4933743;29;20027;-79
2021/06/12 03:21:11;;;;;;;13.20;8.48;;;18.00;97.30;;;;;;4933420;29;20031;-81
2021/06/12 03:23:38;;;;;;;12.10;7.65;;;18.00;97.30;;;;;;4933881;29;20032;-81
2021/06/12 03:26:04;;;;;;;13.20;8.55;;;18.00;97.30;;;;;;4933347;29;20516;-81
2021/06/12 03:28:30;;;;;;;12.07;9.73;;;18.00;97.30;;;;;;4937741;29;20547;-80
2021/06/12 03:30:56;;;;;;;12.70;8.35;;;18.00;97.20;;;;;;4937198;29;20035;-82
2021/06/12 03:33:23;;;;;;;12.35;7.82;;;18.00;97.30;;;;;;4937299;29;20372;-81
2021/06/12 03:35:49;;;;;;;12.18;8.30;;;18.00;97.30;;;;;;4936779;29;20031;-81
2021/06/12 03:38:15;;;;;;;11.85;7.45;;;18.10;97.30;;;;;;4937696;29;20016;-83
2021/06/12 03:40:42;;;;;;;14.10;8.45;;;18.10;97.30;;;;;;4937693;29;20059;-82
2021/06/12 03:43:09;;;;;;;12.85;8.10;;;18.10;97.20;;;;;;4937049;29;20027;-81
2021/06/12 03:45:40;;;;;;;12.60;8.77;;;18.10;97.20;;;;;;4937203;29;20124;-79
2021/06/12 03:48:08;;;;;;;10.02;7.13;;;18.10;97.20;;;;;;4936513;29;20028;-79
2021/06/12 03:50:34;;;;;;;13.43;9.02;;;18.10;97.20;;;;;;4937466;29;20556;-79
2021/06/12 03:53:01;;;;;;;11.93;7.55;;;18.10;97.10;;;;;;4936687;29;20027;-79
2021/06/12 03:55:27;;;;;;;14.27;6.95;;;18.10;97.10;;;;;;4936537;29;20384;-80
2021/06/12 03:57:52;;;;;;;11.25;7.93;;;18.10;97.10;;;;;;4939814;29;20547;-80
2021/06/12 04:00:18;;;;;;;12.07;7.95;;;18.10;97.10;;;;;;4938468;29;20051;-79
2021/06/12 04:02:44;;;;;;;11.00;7.63;;;18.10;97.10;;;;;;4936065;29;20396;-80
2021/06/12 04:05:10;;;;;;;12.68;7.55;;;18.20;97.00;;;;;;4936751;29;20130;-80
2021/06/12 04:07:39;;;;;;;12.63;7.88;;;18.20;97.00;;;;;;4936781;29;20087;-81
2021/06/12 04:10:06;;;;;;;11.48;7.60;;;18.20;97.00;;;;;;4937322;29;20033;-82
2021/06/12 04:12:32;;;;;;;12.68;7.13;;;18.30;96.80;;;;;;4938239;29;20059;-82
2021/06/12 04:14:58;;;;;;;12.27;7.88;;;18.30;96.80;;;;;;4924306;29;20063;-83
2021/06/12 04:17:23;;;;;;;12.85;7.88;;;18.30;96.70;;;;;;4936765;29;20071;-82
2021/06/12 04:19:49;;;;;;;11.25;7.95;;;18.30;96.70;;;;;;4942590;28;20027;-83
2021/06/12 04:22:14;;;;;;;11.57;8.13;;;18.40;96.70;;;;;;4951272;28;20023;-83
2021/06/12 04:24:40;;;;;;;13.52;8.48;;;18.40;96.60;;;;;;4937886;29;20043;-84
2021/06/12 04:27:06;;;;;;;11.00;7.80;;;18.50;96.60;;;;;;4943642;29;20062;-83
2021/06/12 04:29:31;;;;;;;12.80;7.78;;;18.50;96.50;;;;;;4939793;29;20026;-82
2021/06/12 04:31:57;;;;;;;12.63;7.70;;;18.60;96.50;;;;;;4956194;28;20023;-82
2021/06/12 04:34:23;;;;;;;11.13;8.18;;;18.60;96.50;;;;;;4938136;29;20467;-76
2021/06/12 04:36:49;;;;;;;11.80;8.57;;;18.60;96.40;;;;;;4938226;29;20023;-85
2021/06/12 04:39:14;;;;;;;12.70;9.63;;;18.60;96.40;;;;;;4937118;29;20174;-82
2021/06/12 04:41:40;;;;;;;11.23;8.45;;;18.70;96.30;;;;;;4939464;29;20519;-83
2021/06/12 04:44:05;;;;;;;12.98;9.88;;;18.70;96.30;;;;;;4938478;29;20038;-81
2021/06/12 04:46:31;;;;;;;11.98;9.50;;;18.70;96.30;;;;;;4939726;29;20031;-82
2021/06/12 04:48:57;;;;;;;12.32;11.02;;;18.80;96.20;;;;;;4939304;29;20023;-82
2021/06/12 04:51:23;;;;;;;15.63;12.02;;;18.70;96.00;;;;;;4939063;29;20041;-80
2021/06/12 04:53:48;;;;;;;15.32;13.27;;;18.70;96.00;;;;;;4939345;29;20050;-81
2021/06/12 04:56:14;;;;;;;14.77;11.50;;;18.70;95.90;;;;;;4956893;29;20031;-80
2021/06/12 04:58:39;;;;;;;14.88;11.45;;;18.70;95.90;;;;;;4938851;29;20109;-83
2021/06/12 05:01:05;;;;;;;14.70;11.82;;;18.60;95.90;;;;;;4938305;29;20023;-83
2021/06/12 05:03:31;;;;;;;17.63;12.23;;;18.60;95.90;;;;;;4939062;29;20027;-83
2021/06/12 05:05:57;;;;;;;15.45;10.93;;;18.60;96.00;;;;;;4937620;29;20031;-83
2021/06/12 05:08:23;;;;;;;15.95;12.05;;;18.60;96.00;;;;;;4939249;29;20024;-83
2021/06/12 05:10:48;;;;;;;13.95;11.32;;;18.60;95.90;;;;;;4938816;29;20024;-84
2021/06/12 05:13:14;;;;;;;16.33;11.82;;;18.60;95.90;;;;;;4938498;29;20031;-84
2021/06/12 05:15:40;;;;;;;15.52;11.32;;;18.60;95.80;;;;;;4955815;29;20395;-83
2021/06/12 05:18:06;;;;;;;16.80;10.52;;;18.60;95.90;;;;;;4955820;29;20019;-82
2021/06/12 05:20:35;;;;;;;12.73;10.15;;;18.70;95.90;;;;;;4938531;29;20022;-83
2021/06/12 05:23:01;;;;;;;12.05;10.57;;;18.70;95.80;;;;;;4938833;29;20034;-83
2021/06/12 05:25:26;;;;;;;15.73;11.32;;;18.70;95.70;;;;;;4938635;29;20042;-82
2021/06/12 05:27:52;;;;;;;15.15;11.18;;;18.70;95.60;;;;;;4938036;29;20027;-81
2021/06/12 05:30:18;;;;;;;12.40;10.15;;;18.80;95.40;;;;;;4938879;29;20050;-82
2021/06/12 05:32:44;;;;;;;17.58;10.30;;;18.80;95.30;;;;;;4938471;29;20027;-82
2021/06/12 05:35:10;;;;;;;14.63;10.13;;;18.90;95.10;;;;;;4955332;29;20030;-84
2021/06/12 05:37:37;;;;;;;12.13;9.60;;;18.90;95.10;;;;;;4956295;29;20027;-84
2021/06/12 05:40:04;;;;;;;12.60;10.55;;;19.00;95.10;;;;;;4955835;29;20031;-83
2021/06/12 05:42:30;;;;;;;13.18;10.05;;;19.00;94.90;;;;;;4938111;29;20027;-82
2021/06/12 05:44:56;;;;;;;14.90;9.98;;;19.00;94.80;;;;;;4938407;29;20035;-83
2021/06/12 05:47:21;;;;;;;14.75;9.65;;;19.00;94.80;;;;;;4937886;29;20082;-83
2021/06/12 05:49:47;;;;;;;11.90;8.75;;;19.00;94.90;;;;;;4938036;28;20027;-81
2021/06/12 05:52:12;;;;;;;18.20;9.27;;;19.10;94.70;;;;;;4937676;29;20267;-84
2021/06/12 05:54:38;;;;;;;13.00;8.93;;;19.20;94.50;;;;;;4937738;29;20379;-83
2021/06/12 05:57:04;;;;;;;12.60;9.13;;;19.20;94.40;;;;;;4955568;29;20064;-81
2021/06/12 05:59:30;;;;;;;12.50;9.00;;;19.30;94.40;;;;;;4938319;29;20027;-83
2021/06/12 06:01:55;;;;;;;14.10;9.13;;;19.50;94.00;;;;;;4937373;29;20114;-82
2021/06/12 06:04:21;;;;;;;13.02;8.88;;;19.50;93.60;;;;;;4938275;29;20135;-83
2021/06/12 06:06:47;;;;;;;12.18;8.40;;;19.60;93.40;;;;;;4938246;29;20086;-83
2021/06/12 06:09:13;;;;;;;14.05;8.10;;;19.60;93.40;;;;;;4937724;29;20023;-83
2021/06/12 06:11:39;;;;;;;14.35;7.30;;;19.60;93.50;;;;;;4938347;29;20023;-83
2021/06/12 06:14:04;;;;;;;9.75;7.78;;;19.70;93.50;;;;;;4934960;29;20035;-82
2021/06/12 06:16:30;;;;;;;10.05;6.95;;;19.80;93.20;;;;;;4937816;29;20050;-83
2021/06/12 06:18:56;;;;;;;10.63;7.35;;;19.90;93.20;;;;;;4937803;29;20023;-85
2021/06/12 06:21:21;;;;;;;10.35;7.80;;;19.90;92.80;;;;;;4954617;29;20046;-83
2021/06/12 06:23:47;;;;;;;10.35;7.40;;;19.90;92.70;;;;;;4937604;29;20054;-83
2021/06/12 06:26:13;;;;;;;10.68;6.22;;;19.90;92.60;;;;;;4954888;29;20046;-83
2021/06/12 06:28:39;;;;;;;10.30;7.72;;;19.80;92.50;;;;;;4954796;29;20030;-83
2021/06/12 06:31:04;;;;;;;9.88;5.97;;;19.70;92.20;;;;;;4954830;29;20503;-82
2021/06/12 06:33:30;;;;;;;8.75;5.93;;;19.70;92.20;;;;;;4938077;29;20019;-82
2021/06/12 06:35:55;;;;;;;10.50;5.65;;;19.70;92.20;;;;;;4936588;29;20468;-81
2021/06/12 06:38:21;;;;;;;9.65;5.88;;;19.70;91.80;;;;;;4938232;29;20027;-82
2021/06/12 06:40:48;;;;;;;8.32;6.05;;;19.70;91.50;;;;;;4937409;29;20039;-83
2021/06/12 06:43:14;;;;;;;11.30;5.22;;;19.70;91.30;;;;;;4937356;29;20126;-83
2021/06/12 06:45:41;;;;;;;8.50;4.80;;;19.80;91.30;;;;;;4954697;29;20488;-83
2021/06/12 06:48:08;;;;;;;8.98;4.88;;;19.80;91.30;;;;;;4954343;29;20043;-84
2021/06/12 06:50:34;;;;;;;6.82;4.57;;;19.90;91.10;;;;;;4936626;29;20070;-82
2021/06/12 06:52:59;;;;;;;8.18;4.70;;;19.90;90.70;;;;;;4937264;29;20043;-81
2021/06/12 06:55:26;;;;;;;8.55;5.03;;;20.00;90.50;;;;;;4954495;29;20031;-83
2021/06/12 06:57:52;;;;;;;10.00;4.97;;;20.10;90.00;;;;;;4933080;29;20024;-81
2021/06/12 07:00:18;;;;;;;5.82;3.95;;;20.20;89.00;;;;;;4930617;29;20023;-75
2021/06/12 07:02:44;;;;;;;6.55;4.38;;;20.20;88.30;;;;;;4955237;28;20030;-78
2021/06/12 07:05:10;;;;;;;6.00;4.00;;;20.30;87.40;;;;;;4940508;29;20077;-77
2021/06/12 07:07:36;;;;;;;7.18;4.43;;;20.60;86.90;;;;;;4937180;29;20031;-77
2021/06/12 07:10:02;;;;;;;8.20;3.78;;;20.80;85.50;;;;;;4958102;28;20050;-80
2021/06/12 07:12:28;;;;;;;8.48;4.03;;;20.80;84.80;;;;;;4961744;28;20027;-80
2021/06/12 07:14:54;;;;;;;7.03;4.55;;;20.80;84.80;;;;;;4947842;28;20034;-80
2021/06/12 07:17:19;;;;;;;5.95;3.70;;;20.90;84.20;;;;;;4939962;29;20470;-81
2021/06/12 07:19:45;;;;;;;5.80;3.70;;;21.10;83.60;;;;;;4940078;29;20039;-86
2021/06/12 07:22:11;;;;;;;8.02;3.63;;;21.40;82.20;;;;;;4943737;28;20466;-82
2021/06/12 07:24:37;;;;;;;6.93;3.20;;;21.70;80.70;;;;;;4942658;29;20099;-84
2021/06/12 07:27:03;;;;;;;7.85;3.47;;;22.00;79.70;;;;;;4947909;28;20400;-83
2021/06/12 07:29:29;;;;;;;8.82;3.42;;;22.20;77.20;;;;;;4944051;29;20483;-82
2021/06/12 07:31:55;;;;;;;6.47;3.25;;;22.30;75.00;;;;;;4937891;29;20019;-79
2021/06/12 07:34:20;;;;;;;6.47;3.20;;;22.50;75.30;;;;;;4933883;29;20020;-81
2021/06/12 07:36:46;;;;;;;4.72;2.97;;;22.50;75.00;;;;;;4933324;29;20024;-79
2021/06/12 07:39:12;;;;;;;5.05;2.83;;;22.40;73.60;;;;;;4932923;29;20075;-78
2021/06/12 07:41:39;;;;;;;3.05;2.70;;;22.30;73.30;;;;;;4933754;29;20020;-80
2021/06/12 07:44:06;;;;;;;3.72;2.70;;;22.20;72.50;;;;;;4933420;29;20035;-81
2021/06/12 07:46:32;;;;;;;4.05;2.60;;;22.10;72.60;;;;;;4932290;29;20055;-80
2021/06/12 07:48:58;;;;;;;4.68;2.60;;;22.20;72.70;;;;;;4944878;29;20053;-81
2021/06/12 07:51:24;;;;;;;3.88;2.50;;;22.30;72.50;;;;;;4953506;28;20055;-82
2021/06/12 07:53:49;;;;;;;5.15;2.60;;;22.30;73.20;;;;;;4934806;28;20031;-81
2021/06/12 07:56:15;;;;;;;6.22;2.83;;;22.40;72.10;;;;;;4917552;29;20024;-83
2021/06/12 07:58:41;;;;;;;4.97;2.60;;;22.40;70.20;;;;;;4929248;29;20500;-78
2021/06/12 08:01:07;;;;;;;5.90;2.92;;;22.30;71.30;;;;;;4932103;29;20024;-78
2021/06/12 08:03:34;;;;;;;4.97;2.63;;;22.40;70.80;;;;;;4932840;29;20031;-80
2021/06/12 08:06:00;;;;;;;4.75;2.30;;;22.30;70.50;;;;;;4932508;29;20039;-79
2021/06/12 08:08:26;;;;;;;6.10;2.53;;;22.20;70.50;;;;;;4933979;29;20031;-80
2021/06/12 08:10:51;;;;;;;5.78;3.13;;;22.40;70.40;;;;;;4932748;29;20381;-79
2021/06/12 08:13:17;;;;;;;3.95;2.28;;;22.50;69.40;;;;;;4932337;29;20059;-79
2021/06/12 08:15:43;;;;;;;7.00;2.45;;;22.60;69.50;;;;;;4936675;29;20034;-81
2021/06/12 08:18:09;;;;;;;5.00;2.28;;;22.60;68.90;;;;;;4939553;29;20242;-80
2021/06/12 08:20:35;;;;;;;5.00;2.45;;;22.50;68.80;;;;;;4939036;29;20031;-81
2021/06/12 08:23:01;;;;;;;4.45;2.42;;;22.60;68.90;;;;;;4939473;29;20019;-80
2021/06/12 08:25:27;;;;;;;5.00;2.30;;;22.60;68.70;;;;;;4939060;29;20130;-79
2021/06/12 08:27:53;;;;;;;7.13;2.50;;;22.90;68.80;;;;;;4956344;29;20030;-80
2021/06/12 08:30:19;;;;;;;3.95;2.15;;;23.30;68.50;;;;;;4939891;29;20035;-81
2021/06/12 08:32:45;;;;;;;4.65;2.83;;;23.50;67.70;;;;;;4939333;28;20030;-78
2021/06/12 08:35:11;;;;;;;5.43;2.38;;;23.50;65.70;;;;;;4934623;29;20023;-78
2021/06/12 08:37:37;;;;;;;3.65;2.88;;;23.30;65.60;;;;;;4939489;29;20034;-79
2021/06/12 08:40:05;;;;;;;4.97;2.42;;;23.10;66.60;;;;;;4940301;28;20027;-79
2021/06/12 08:42:31;;;;;;;5.32;1.90;;;22.90;67.50;;;;;;4940553;29;20023;-80
2021/06/12 08:44:59;;;;;;;6.35;2.60;;;22.90;68.10;;;;;;4937246;28;20050;-81
2021/06/12 08:47:25;;;;;;;5.15;2.67;;;23.00;67.20;;;;;;4928312;28;20452;-80
2021/06/12 08:49:52;;;;;;;8.38;2.63;;;22.90;66.70;;;;;;4949558;28;20023;-80
2021/06/12 08:52:18;;;;;;;6.60;2.78;;;23.00;66.50;;;;;;4934876;29;20034;-82
2021/06/12 08:54:45;;;;;;;4.57;2.85;;;23.20;65.40;;;;;;4922232;29;20550;-79
2021/06/12 08:57:11;;;;;;;4.25;2.22;;;23.30;65.10;;;;;;4938567;29;20035;-80
2021/06/12 08:59:37;;;;;;;6.65;2.50;;;23.40;64.70;;;;;;4939043;29;20082;-79
2021/06/12 09:02:05;;;;;;;5.10;2.70;;;23.40;64.00;;;;;;4937589;29;20023;-80
2021/06/12 09:04:33;;;;;;;5.20;2.50;;;23.30;63.20;;;;;;4936882;29;20797;-80
2021/06/12 09:07:21;;;;;;;7.38;2.78;;;23.20;63.40;;;;;;4955517;29;20024;-85
2021/06/12 09:09:49;;;;;;;10.00;2.83;;;23.30;64.10;;;;;;4937685;29;20344;-82
2021/06/12 09:12:15;;;;;;;6.70;2.63;;;23.30;62.60;;;;;;4955899;29;20479;-81
2021/06/12 09:14:41;;;;;;;6.07;2.70;;;23.20;63.10;;;;;;4955278;29;20034;-82
2021/06/12 09:17:07;;;;;;;6.60;2.80;;;23.20;63.00;;;;;;4941330;28;20059;-80
2021/06/12 09:19:41;;;;;;;7.28;2.47;;;23.20;62.50;;;;;;4968705;28;20031;-81
2021/06/12 09:22:10;;;;;;;6.30;2.90;;;23.20;63.70;;;;;;4955274;29;20428;-81
2021/06/12 09:24:50;;;;;;;5.30;2.75;;;23.40;63.60;;;;;;4937787;28;20027;-80
2021/06/12 09:27:18;;;;;;;4.85;2.40;;;23.70;62.50;;;;;;4939055;29;20034;-80
2021/06/12 09:29:48;;;;;;;4.88;2.67;;;23.80;61.90;;;;;;4938544;29;20019;-82
2021/06/12 09:32:43;;;;;;;4.28;2.92;;;24.00;62.20;;;;;;4938028;28;20039;-80
2021/06/12 09:35:09;;;;;;;10.25;3.22;;;24.00;61.60;;;;;;4954838;29;20035;-80
2021/06/12 09:37:37;;;;;;;4.72;3.17;;;23.90;61.00;;;;;;4938438;29;20027;-80
2021/06/12 09:40:11;;;;;;;6.32;2.92;;;23.70;62.30;;;;;;4936192;29;20031;-78
2021/06/12 09:42:48;;;;;;;7.68;2.60;;;23.60;61.40;;;;;;4939757;29;20380;-79
2021/06/12 09:45:23;;;;;;;5.57;2.33;;;23.50;62.40;;;;;;4930140;29;20141;-79
2021/06/12 09:47:49;;;;;;;4.72;2.63;;;23.50;62.40;;;;;;4938172;29;20027;-81
2021/06/12 09:50:20;;;;;;;7.40;3.00;;;23.50;62.60;;;;;;4971085;28;20077;-80
2021/06/12 09:52:50;;;;;;;;;;;23.60;62.20;;;;;;4952033;28;20030;-82
2021/06/12 09:55:26;;;;;;;6.03;2.28;;;23.70;61.90;;;;;;4939891;29;19918;-80
2021/06/12 09:57:52;;;;;;;8.43;2.72;;;23.70;61.30;;;;;;4934861;29;20027;-79
2021/06/12 10:00:27;;;;;;;5.10;2.55;;;23.70;60.60;;;;;;4951104;29;20027;-81
2021/06/12 10:02:52;;;;;;;6.43;3.08;;;23.70;61.30;;;;;;4937395;29;20033;-78
2021/06/12 10:05:18;;;;;;;5.35;2.67;;;23.70;61.90;;;;;;4955028;29;20031;-81
2021/06/12 10:07:44;;;;;;;8.20;3.10;;;23.80;61.80;;;;;;4936441;29;20412;-80
2021/06/12 10:10:14;;;;;;;5.95;2.58;;;23.70;60.60;;;;;;4938017;29;20031;-79
2021/06/12 10:12:41;;;;;;;4.97;2.60;;;23.70;59.80;;;;;;4955090;29;20031;-81
2021/06/12 10:15:09;;;;;;;6.50;3.45;;;23.70;60.20;;;;;;4936568;29;20436;-81
2021/06/12 10:17:42;;;;;;;6.63;2.88;;;23.60;60.10;;;;;;4955358;29;20051;-79
2021/06/12 10:20:08;;;;;;;6.25;2.90;;;23.50;60.60;;;;;;4953217;29;20074;-80
2021/06/12 10:22:35;;;;;;;7.13;3.15;;;23.40;60.40;;;;;;4954587;29;20027;-79
2021/06/12 10:25:01;;;;;;;6.40;2.88;;;23.50;60.60;;;;;;4937382;28;20400;-78
2021/06/12 10:27:27;;;;;;;6.40;2.60;;;23.60;60.90;;;;;;4937112;29;20032;-80
2021/06/12 10:29:53;;;;;;;6.53;2.72;;;23.70;60.80;;;;;;4936770;29;20015;-78
2021/06/12 10:32:20;;;;;;;4.80;2.35;;;23.80;60.80;;;;;;4937319;29;20392;-78
2021/06/12 10:34:51;;;;;;;5.50;2.85;;;23.80;60.90;;;;;;4935785;29;20480;-81
2021/06/12 10:37:17;;;;;;;;;;;23.80;61.50;;;;;;4936306;29;20122;-80
2021/06/12 10:39:43;;;;;;;8.52;3.03;;;23.70;60.40;;;;;;4941089;29;19954;-79
2021/06/12 10:42:09;;;;;;;6.50;3.00;;;23.60;60.50;;;;;;4952413;29;20031;-79
2021/06/12 10:44:35;;;;;;;5.13;2.80;;;23.30;61.10;;;;;;4936970;29;20031;-80
2021/06/12 10:50:26;;;;;;;8.27;3.03;;;23.00;61.10;;;;;;4927183;29;20051;-78
2021/06/12 10:52:53;;;;;;;5.50;2.78;;;23.10;62.30;;;;;;4936615;29;20400;-81
2021/06/12 10:55:51;;;;;;;8.88;3.38;;;23.10;62.70;;;;;;4935656;29;20025;-75
2021/06/12 10:58:29;;;;;;;6.05;2.67;;;23.10;62.90;;;;;;4936329;29;20042;-78
2021/06/12 11:01:07;;;;;;;11.95;3.90;;;23.00;61.90;;;;;;4920492;29;20035;-81
2021/06/12 11:04:19;;;;;;;6.55;3.13;;;23.00;62.80;;;;;;4952103;29;20023;-74
2021/06/12 11:06:54;;;;;;;8.25;3.45;;;23.10;63.00;;;;;;4929374;29;20039;-73
2021/06/12 11:09:20;;;;;;;5.95;2.88;;;23.00;61.60;;;;;;4952982;29;20145;-74
2021/06/12 11:11:51;;;;;;;5.88;2.22;;;22.90;62.10;;;;;;4953009;29;20065;-75
2021/06/12 11:14:22;;;;;;;9.35;2.80;;;22.80;62.20;;;;;;4952503;29;20487;-77
2021/06/12 11:17:09;;;;;;;5.10;2.35;;;22.80;61.30;;;;;;4935823;29;20129;-82
2021/06/12 11:19:39;;;;;;;4.95;2.60;;;22.60;61.80;;;;;;4932341;29;20036;-81
2021/06/12 11:22:28;;;;;;;7.65;2.80;;;22.60;61.80;;;;;;4936363;29;20396;-81
2021/06/12 11:25:20;;;;;;;5.28;2.20;;;22.70;62.20;;;;;;4935840;29;20035;-80
2021/06/12 11:27:47;;;;;;;4.78;2.17;;;22.80;61.10;;;;;;4933587;29;20023;-80
2021/06/12 11:30:25;;;;;;;5.63;2.10;;;22.90;60.00;;;;;;4935239;29;20050;-81
2021/06/12 11:33:12;;;;;;;5.38;1.92;;;22.80;60.60;;;;;;4931882;29;20114;-80
2021/06/12 11:35:40;;;;;;;6.43;2.67;;;22.80;61.20;;;;;;4935941;29;20046;-80
2021/06/12 11:38:09;;;;;;;7.75;2.53;;;22.90;60.70;;;;;;4953119;29;20106;-81
2021/06/12 11:40:35;;;;;;;8.82;2.80;;;23.10;60.00;;;;;;4939494;29;20023;-79
2021/06/12 11:43:01;;;;;;;6.10;2.55;;;23.40;59.70;;;;;;4935900;29;20030;-81
2021/06/12 11:45:30;;;;;;;7.35;2.67;;;23.50;59.40;;;;;;4934532;29;20046;-81
2021/06/12 11:47:56;;;;;;;9.80;2.72;;;23.50;59.40;;;;;;4935626;29;20027;-83
2021/06/12 11:50:41;;;;;;;4.95;2.40;;;23.30;58.50;;;;;;4939013;29;20019;-82
2021/06/12 11:53:36;;;;;;;6.32;2.65;;;23.40;57.90;;;;;;4939104;29;20031;-83
2021/06/12 11:56:02;;;;;;;4.25;2.00;;;23.30;58.70;;;;;;4938527;29;20075;-82
2021/06/12 11:58:28;;;;;;;6.82;2.15;;;23.20;59.20;;;;;;4940145;29;20023;-83
2021/06/12 12:00:54;;;;;;;5.68;2.38;;;23.20;58.70;;;;;;4939948;29;20031;-78
2021/06/12 12:03:19;;;;;;;7.68;3.00;;;23.20;59.10;;;;;;4940124;29;20026;-80
2021/06/12 12:05:58;;;;;;;7.75;2.80;;;23.10;58.40;;;;;;4939106;29;20125;-84
2021/06/12 12:08:23;;;;;;;5.25;2.38;;;23.10;58.90;;;;;;4940222;29;20049;-81
2021/06/12 12:10:55;;;;;;;9.77;2.90;;;23.20;58.90;;;;;;4939778;29;20503;-84
2021/06/12 12:13:38;;;;;;;6.07;2.83;;;23.10;58.70;;;;;;4939707;29;20106;-83
2021/06/12 12:16:23;;;;;;;6.00;2.47;;;23.10;58.80;;;;;;4939594;29;20114;-83
2021/06/12 12:18:51;;;;;;;6.30;2.38;;;23.30;58.90;;;;;;4939643;29;20488;-84
2021/06/12 12:21:40;;;;;;;4.30;2.10;;;23.30;58.30;;;;;;4939387;29;20046;-84
2021/06/12 12:24:11;;;;;;;7.38;2.58;;;23.10;58.50;;;;;;4939669;29;20067;-80
2021/06/12 12:26:39;;;;;;;4.85;2.22;;;22.80;58.40;;;;;;4939251;29;20086;-81
2021/06/12 12:29:11;;;;;;;7.55;2.92;;;22.70;58.40;;;;;;4956823;29;20039;-79
2021/06/12 12:31:46;;;;;;;7.47;2.83;;;22.60;58.40;;;;;;4956129;29;20042;-78
2021/06/12 12:34:12;;;;;;;6.88;2.85;;;22.50;59.60;;;;;;4956392;29;20046;-80
2021/06/12 12:36:46;;;;;;;6.20;2.50;;;22.50;59.80;;;;;;4939049;29;20023;-75
2021/06/12 12:39:11;;;;;;;6.88;2.45;;;22.60;59.60;;;;;;4940759;29;20023;-82
2021/06/12 12:41:37;;;;;;;7.20;2.85;;;22.60;59.00;;;;;;4955939;29;20380;-77
2021/06/12 12:44:09;;;;;;;8.55;3.05;;;22.70;58.20;;;;;;4939656;29;20480;-85
2021/06/12 12:46:36;;;;;;;5.82;2.35;;;22.80;57.70;;;;;;4939391;29;20186;-83
2021/06/12 12:49:03;;;;;;;7.47;2.35;;;22.90;57.10;;;;;;4937992;29;20045;-82